Jane, Missouri
Current Conditions -  °F | °C
As of 7:15 PM on Saturday 22 Nov 2014 (Local Time) from KVBT Reporting Station
Few Clouds Few Clouds  
Wind Chill: 13°   Ceiling: Unl
Heat Index: 13°   Visibility: 10mi
Dew Point: 10°   Wind: 23mph
Humidity: 82%   Direction: 170°S
Pressure: 29.87"   Gusts: 33mph
Location:  36.5706°N, 94.342°W
Report Text: KVBT 230115Z AUTO 17020G29KT 10SM FEW024 13/10 A2987 RMK AO1 P0001
Loading
Personal Weather Stations






























Interactive Weather Map New forecast layout! Learn more

10-Day Weather Forecast

Advertisements
Track Severe Weather on mobile